Time;durP1;ratioP1;P1;durP2;ratioP2;P2;SDS_P1;SDS_P2;PMS_P1;PMS_P2;Temp;Humidity;BMP_temperature;BMP_pressure;BME280_temperature;BME280_humidity;BME280_pressure;Samples;Min_cycle;Max_cycle;Signal;HPM_P1;HPM_P2
2023/06/17 00:01:53;;;;;;;11.30;6.97;;;;;;;18.76;57.98;98710.75;4359210;32;33603;-84
2023/06/17 00:04:21;;;;;;;10.93;7.03;;;;;;;18.80;57.75;98706.28;4359114;32;33417;-83
2023/06/17 00:06:49;;;;;;;10.40;6.93;;;;;;;18.81;57.79;98705.37;4358959;32;35105;-84
2023/06/17 00:09:16;;;;;;;9.57;6.90;;;;;;;18.76;57.89;98699.41;4358900;32;34931;-84
2023/06/17 00:11:44;;;;;;;12.05;7.00;;;;;;;18.81;57.47;98697.50;4359081;32;33222;-85
2023/06/17 00:14:11;;;;;;;12.52;6.43;;;;;;;18.48;58.23;98700.94;4359153;32;33852;-84
2023/06/17 00:16:43;;;;;;;11.00;6.80;;;;;;;18.60;57.95;98688.38;4358855;32;34832;-83
2023/06/17 00:19:15;;;;;;;9.77;6.75;;;;;;;18.83;57.22;98680.78;4358876;32;34187;-83
2023/06/17 00:21:43;;;;;;;12.18;6.35;;;;;;;18.81;56.70;98686.97;4360635;32;33389;-83
2023/06/17 00:24:12;;;;;;;12.30;6.87;;;;;;;18.61;56.68;98691.00;4361143;32;33725;-83
2023/06/17 00:26:40;;;;;;;9.23;6.32;;;;;;;18.36;57.31;98690.78;4360481;32;35019;-83
2023/06/17 00:29:07;;;;;;;13.23;6.35;;;;;;;18.59;56.52;98691.94;4355590;32;34667;-84
2023/06/17 00:31:35;;;;;;;9.30;6.75;;;;;;;18.29;56.38;98685.72;4347420;32;34326;-86
2023/06/17 00:34:03;;;;;;;11.02;6.20;;;;;;;18.34;56.37;98689.13;4361230;32;34953;-83
2023/06/17 00:36:30;;;;;;;9.70;6.37;;;;;;;17.83;57.01;98690.37;4361208;32;33893;-84
2023/06/17 00:38:58;;;;;;;10.98;6.45;;;;;;;17.92;56.91;98691.94;4360605;32;33852;-84
2023/06/17 00:41:25;;;;;;;9.95;6.28;;;;;;;17.77;56.99;98689.66;4361234;32;33841;-87
2023/06/17 00:43:53;;;;;;;10.32;6.78;;;;;;;17.95;56.86;98684.81;4361062;32;33864;-84
2023/06/17 00:46:31;;;;;;;12.52;6.85;;;;;;;17.94;56.61;98690.13;4347337;32;35776;-84
2023/06/17 00:48:58;;;;;;;11.27;7.07;;;;;;;17.21;58.52;98679.56;4347518;32;33785;-84
2023/06/17 00:51:26;;;;;;;10.98;6.95;;;;;;;17.44;58.17;98684.28;4360707;32;33134;-86
2023/06/17 00:53:54;;;;;;;11.38;7.00;;;;;;;17.41;58.44;98682.59;4361169;32;33877;-83
2023/06/17 00:56:25;;;;;;;10.48;6.82;;;;;;;17.67;57.49;98683.75;4346843;32;33689;-84
2023/06/17 00:58:53;;;;;;;11.93;7.53;;;;;;;17.82;57.00;98679.94;4335709;32;34172;-84
2023/06/17 01:01:24;;;;;;;11.05;6.22;;;;;;;17.92;56.49;98678.81;4361046;32;34198;-83
2023/06/17 01:04:02;;;;;;;9.23;6.30;;;;;;;18.00;56.36;98676.84;4346480;32;34783;-83
2023/06/17 01:06:59;;;;;;;13.05;6.18;;;;;;;18.15;55.57;98665.97;4346148;32;33626;-82
2023/06/17 01:09:33;;;;;;;12.00;6.70;;;;;;;18.24;55.26;98670.13;4346449;32;33849;-84
2023/06/17 01:12:03;;;;;;;9.55;5.95;;;;;;;17.52;57.14;98675.34;4347808;32;33722;-85
2023/06/17 01:14:32;;;;;;;10.40;5.97;;;;;;;17.65;57.32;98661.94;4347509;32;33903;-84
2023/06/17 01:17:01;;;;;;;10.63;6.50;;;;;;;16.93;59.28;98667.06;4346530;32;34240;-83
2023/06/17 01:19:29;;;;;;;13.25;6.62;;;;;;;17.62;57.59;98664.66;4360652;32;34459;-85
2023/06/17 01:21:57;;;;;;;9.98;6.37;;;;;;;17.55;57.95;98674.41;4361007;32;33428;-84
2023/06/17 01:24:30;;;;;;;13.13;6.80;;;;;;;17.52;57.95;98669.25;4360611;32;33624;-84
2023/06/17 01:27:00;;;;;;;9.45;6.57;;;;;;;17.86;56.78;98674.56;4346910;32;34179;-83
2023/06/17 01:29:32;;;;;;;11.95;6.87;;;;;;;17.67;57.77;98660.16;4360157;32;33956;-84
2023/06/17 01:32:00;;;;;;;11.77;6.62;;;;;;;17.78;57.31;98667.78;4346609;32;33744;-83
2023/06/17 01:34:34;;;;;;;9.32;6.32;;;;;;;17.75;57.55;98674.81;4347311;32;34782;-84
2023/06/17 01:37:08;;;;;;;12.68;6.43;;;;;;;17.54;57.87;98672.69;4346608;32;34045;-82
2023/06/17 01:39:36;;;;;;;17.17;7.43;;;;;;;17.14;59.25;98670.97;4345473;32;33476;-83
2023/06/17 01:42:07;;;;;;;9.35;6.10;;;;;;;17.16;59.14;98671.81;4347060;32;33335;-83
2023/06/17 01:44:36;;;;;;;9.70;6.37;;;;;;;17.24;59.14;98669.00;4347418;32;34733;-84
2023/06/17 01:47:04;;;;;;;11.48;6.90;;;;;;;17.17;59.41;98665.66;4346696;32;34065;-83
2023/06/17 01:49:31;;;;;;;11.50;7.03;;;;;;;16.92;59.93;98673.16;4359782;32;35452;-83
2023/06/17 01:51:59;;;;;;;9.70;6.85;;;;;;;17.12;59.45;98670.16;4360274;32;33409;-84
2023/06/17 01:54:27;;;;;;;10.30;6.32;;;;;;;17.21;58.99;98669.06;4360547;32;33927;-83
2023/06/17 01:56:56;;;;;;;9.57;6.28;;;;;;;17.05;59.50;98662.44;4360394;32;34259;-83
2023/06/17 01:59:23;;;;;;;11.25;6.90;;;;;;;17.03;59.46;98663.31;4346990;32;34473;-83
2023/06/17 02:01:51;;;;;;;11.02;7.10;;;;;;;17.02;59.61;98661.63;4360456;32;33727;-83
2023/06/17 02:04:19;;;;;;;9.98;6.97;;;;;;;17.33;58.97;98660.94;4360029;32;34131;-84
2023/06/17 02:06:46;;;;;;;9.68;6.60;;;;;;;17.41;58.45;98666.00;4334832;32;34232;-83
2023/06/17 02:09:14;;;;;;;8.77;5.97;;;;;;;17.22;58.69;98660.31;4346649;32;33876;-85
2023/06/17 02:11:41;;;;;;;11.12;6.85;;;;;;;17.07;59.42;98665.88;4334112;32;34324;-85
2023/06/17 02:14:09;;;;;;;12.25;6.55;;;;;;;16.62;60.58;98664.12;4360074;32;33821;-85
2023/06/17 02:16:39;;;;;;;11.15;7.03;;;;;;;16.97;59.50;98660.84;4360568;32;33930;-84
2023/06/17 02:19:07;;;;;;;8.95;6.62;;;;;;;17.03;59.46;98671.19;4360227;32;34821;-83
2023/06/17 02:21:34;;;;;;;9.82;6.70;;;;;;;17.32;58.13;98667.09;4360460;32;34618;-84
2023/06/17 02:24:02;;;;;;;11.90;6.45;;;;;;;17.35;58.15;98663.50;4360523;32;34761;-83
2023/06/17 02:26:31;;;;;;;9.20;6.47;;;;;;;16.63;60.30;98678.09;4360004;32;35026;-83
2023/06/17 02:28:59;;;;;;;13.40;7.35;;;;;;;16.57;60.74;98671.22;4346759;32;33783;-84
2023/06/17 02:31:27;;;;;;;12.45;7.18;;;;;;;16.53;60.76;98673.03;4351733;32;33744;-84
2023/06/17 02:34:01;;;;;;;11.65;7.03;;;;;;;16.39;61.06;98677.66;4347014;32;33952;-85
2023/06/17 02:36:29;;;;;;;10.75;6.93;;;;;;;15.93;62.57;98678.47;4346460;32;33736;-83
2023/06/17 02:38:57;;;;;;;11.23;7.10;;;;;;;15.82;63.00;98681.25;4360333;32;35094;-83
2023/06/17 02:41:25;;;;;;;10.55;7.55;;;;;;;16.04;62.51;98676.53;4360156;32;33645;-85
2023/06/17 02:43:54;;;;;;;10.30;7.03;;;;;;;16.23;61.92;98682.31;4359242;32;33462;-83
2023/06/17 02:46:24;;;;;;;10.85;7.32;;;;;;;16.49;60.79;98683.59;4360201;32;33989;-83
2023/06/17 02:48:51;;;;;;;10.45;6.87;;;;;;;16.23;62.05;98689.31;4346521;32;34934;-84
2023/06/17 02:51:20;;;;;;;13.38;7.20;;;;;;;16.61;60.30;98688.59;4360371;32;33777;-83
2023/06/17 02:53:47;;;;;;;11.48;7.80;;;;;;;15.84;63.09;98689.09;4360002;32;34628;-83
2023/06/17 02:56:15;;;;;;;10.85;7.28;;;;;;;16.13;62.31;98687.72;4346986;32;34118;-82
2023/06/17 02:58:43;;;;;;;9.80;6.87;;;;;;;16.22;62.08;98695.44;4346940;32;34975;-83
2023/06/17 03:01:12;;;;;;;10.77;7.53;;;;;;;16.03;62.45;98690.50;4346763;32;34556;-83
2023/06/17 03:03:41;;;;;;;10.57;7.03;;;;;;;16.17;62.13;98692.00;4359627;32;33927;-84
2023/06/17 03:06:09;;;;;;;11.82;6.93;;;;;;;15.90;62.94;98694.19;4359861;32;35571;-84
2023/06/17 03:08:39;;;;;;;11.65;7.50;;;;;;;16.46;61.04;98697.59;4360177;32;34073;-84
2023/06/17 03:11:06;;;;;;;13.00;7.60;;;;;;;16.33;61.17;98695.22;4359971;32;33754;-83
2023/06/17 03:13:35;;;;;;;8.73;6.40;;;;;;;16.28;61.75;98696.16;4346444;32;34020;-83
2023/06/17 03:16:05;;;;;;;10.13;6.70;;;;;;;16.47;61.23;98707.16;4360034;32;35495;-83
2023/06/17 03:18:33;;;;;;;11.75;7.07;;;;;;;16.11;62.30;98700.84;4360059;32;35204;-85
2023/06/17 03:21:01;;;;;;;10.27;6.50;;;;;;;16.01;62.82;98705.34;4359895;32;34671;-83
2023/06/17 03:23:29;;;;;;;9.43;7.05;;;;;;;16.35;61.81;98711.75;4360333;32;34497;-84
2023/06/17 03:25:57;;;;;;;11.63;7.25;;;;;;;16.35;61.76;98702.16;4359558;32;34087;-83
2023/06/17 03:28:25;;;;;;;10.60;6.95;;;;;;;16.52;61.47;98707.09;4359976;32;33769;-83
2023/06/17 03:30:52;;;;;;;9.80;6.93;;;;;;;16.38;61.29;98707.34;4359527;32;33407;-83
2023/06/17 03:33:20;;;;;;;9.18;7.28;;;;;;;16.21;62.08;98712.00;4359784;32;34284;-83
2023/06/17 03:35:48;;;;;;;9.93;6.50;;;;;;;16.31;61.90;98716.19;4359122;32;34046;-84
2023/06/17 03:38:16;;;;;;;10.90;6.78;;;;;;;16.44;61.44;98711.59;4359600;32;33754;-83
2023/06/17 03:40:43;;;;;;;10.30;7.12;;;;;;;15.94;63.01;98716.78;4359480;32;33616;-85
2023/06/17 03:43:13;;;;;;;9.25;6.43;;;;;;;16.02;62.94;98720.19;4345945;32;33733;-84
2023/06/17 03:45:41;;;;;;;10.68;7.45;;;;;;;15.95;63.32;98718.53;4358632;32;34785;-84
2023/06/17 03:48:09;;;;;;;11.73;7.55;;;;;;;16.03;63.00;98719.28;4359794;32;34714;-82
2023/06/17 03:50:36;;;;;;;10.25;7.18;;;;;;;15.76;63.88;98722.34;4358804;32;33609;-83
2023/06/17 03:53:05;;;;;;;11.02;7.03;;;;;;;15.62;64.61;98719.03;4359535;32;34116;-85
2023/06/17 03:55:32;;;;;;;11.45;7.03;;;;;;;15.68;64.56;98725.06;4359575;32;34152;-83
2023/06/17 03:58:00;;;;;;;8.98;6.82;;;;;;;15.90;63.79;98725.56;4360778;32;35007;-86
2023/06/17 04:00:28;;;;;;;9.75;7.40;;;;;;;16.13;63.24;98727.81;4361000;32;33553;-83
2023/06/17 04:02:56;;;;;;;11.20;6.62;;;;;;;16.09;63.29;98728.75;4361186;32;33928;-83
2023/06/17 04:05:32;;;;;;;11.48;7.00;;;;;;;16.30;62.71;98727.53;4360046;32;34462;-86
2023/06/17 04:08:02;;;;;;;10.15;6.55;;;;;;;16.44;62.07;98727.28;4361162;32;34236;-83
2023/06/17 04:10:30;;;;;;;10.27;6.68;;;;;;;16.02;63.58;98725.41;4360552;32;33533;-83
2023/06/17 04:12:58;;;;;;;10.70;7.28;;;;;;;15.94;63.93;98724.62;4360759;32;33753;-86
2023/06/17 04:15:25;;;;;;;11.18;6.57;;;;;;;16.40;62.88;98726.50;4360910;32;34147;-86
2023/06/17 04:17:53;;;;;;;11.18;6.78;;;;;;;16.46;62.73;98726.38;4360725;32;34204;-84
2023/06/17 04:20:25;;;;;;;11.55;6.93;;;;;;;17.01;61.19;98730.59;4360623;32;33682;-84
2023/06/17 04:22:53;;;;;;;11.82;6.65;;;;;;;16.89;61.30;98733.44;4347655;32;34172;-84
2023/06/17 04:25:22;;;;;;;10.95;7.07;;;;;;;17.22;60.22;98734.53;4360948;32;33678;-82
2023/06/17 04:27:53;;;;;;;11.15;5.87;;;;;;;17.43;59.86;98737.59;4361293;32;34968;-83
2023/06/17 04:30:21;;;;;;;9.45;6.28;;;;;;;17.09;60.50;98738.31;4360925;32;33379;-84
2023/06/17 04:32:50;;;;;;;10.55;6.20;;;;;;;17.37;59.84;98733.34;4360994;32;33861;-84
2023/06/17 04:35:18;;;;;;;12.10;6.30;;;;;;;16.93;60.79;98736.88;4361124;32;33799;-83
2023/06/17 04:37:53;;;;;;;10.10;6.18;;;;;;;17.59;59.22;98738.13;4360940;32;33938;-83
2023/06/17 04:40:22;;;;;;;9.82;6.65;;;;;;;17.82;58.09;98737.63;4347148;32;32594;-83
2023/06/17 04:42:51;;;;;;;11.65;6.85;;;;;;;17.45;58.99;98731.41;4360972;32;34077;-85
2023/06/17 04:45:19;;;;;;;12.37;6.57;;;;;;;16.98;60.45;98741.13;4347059;32;35261;-84
2023/06/17 04:47:48;;;;;;;11.35;6.87;;;;;;;17.37;60.20;98741.19;4361063;32;34244;-84
2023/06/17 04:50:16;;;;;;;14.68;6.43;;;;;;;17.34;60.13;98737.78;4360587;32;33351;-84
2023/06/17 04:52:51;;;;;;;12.27;6.70;;;;;;;17.65;59.10;98737.97;4360830;32;34127;-84
2023/06/17 04:55:21;;;;;;;10.82;6.12;;;;;;;17.65;59.03;98735.34;4347867;32;35147;-85
2023/06/17 04:57:48;;;;;;;12.48;6.20;;;;;;;18.33;57.01;98737.22;4360558;32;34176;-83
2023/06/17 05:00:18;;;;;;;9.55;6.47;;;;;;;18.08;57.80;98742.25;4364780;32;33940;-85
2023/06/17 05:02:50;;;;;;;8.90;6.70;;;;;;;18.19;57.38;98729.72;4362027;32;34119;-84
2023/06/17 05:05:18;;;;;;;10.65;6.55;;;;;;;18.18;57.35;98735.84;4360613;32;33888;-84
2023/06/17 05:07:45;;;;;;;11.82;6.72;;;;;;;17.50;59.43;98742.66;4360134;32;33913;-86
2023/06/17 05:10:14;;;;;;;11.00;5.72;;;;;;;18.26;57.52;98739.16;4360825;32;34097;-83
2023/06/17 05:12:41;;;;;;;10.57;7.28;;;;;;;17.89;58.98;98740.06;4360535;32;33936;-83
2023/06/17 05:15:10;;;;;;;9.65;6.32;;;;;;;18.46;56.93;98742.13;4360569;32;33684;-84
2023/06/17 05:17:37;;;;;;;10.38;6.70;;;;;;;18.59;56.84;98749.69;4360398;32;33953;-84
2023/06/17 05:20:06;;;;;;;9.02;5.87;;;;;;;19.02;55.82;98746.81;4360092;32;33646;-85
2023/06/17 05:22:34;;;;;;;10.90;6.50;;;;;;;19.22;54.65;98748.00;4360860;32;34060;-84
2023/06/17 05:25:01;;;;;;;10.50;6.93;;;;;;;19.20;54.22;98748.88;4347096;32;32926;-84
2023/06/17 05:27:32;;;;;;;8.48;5.60;;;;;;;18.94;55.23;98759.25;4360217;32;33331;-83
2023/06/17 05:30:00;;;;;;;8.80;5.90;;;;;;;19.21;54.05;98749.78;4359912;32;33603;-83
2023/06/17 05:32:28;;;;;;;12.27;6.50;;;;;;;19.31;53.82;98756.47;4360478;32;34468;-85
2023/06/17 05:34:55;;;;;;;9.35;6.22;;;;;;;19.53;53.70;98750.56;4359796;32;34979;-86
2023/06/17 05:37:23;;;;;;;9.15;5.70;;;;;;;19.85;52.70;98761.00;4360549;32;34654;-83
2023/06/17 05:39:51;;;;;;;10.52;6.22;;;;;;;19.47;55.08;98761.25;4360209;32;33611;-84
2023/06/17 05:42:19;;;;;;;10.95;6.62;;;;;;;19.36;53.71;98765.09;4360179;32;33547;-84
2023/06/17 05:44:46;;;;;;;10.48;6.78;;;;;;;18.80;55.29;98769.31;4360384;32;34079;-84
2023/06/17 05:47:14;;;;;;;8.80;5.87;;;;;;;18.28;57.11;98766.22;4360856;32;33727;-84
2023/06/17 05:49:42;;;;;;;7.43;5.72;;;;;;;19.18;55.33;98766.47;4360549;32;33760;-84
2023/06/17 05:52:10;;;;;;;8.70;5.72;;;;;;;19.82;54.35;98769.00;4359599;32;33827;-84
2023/06/17 05:54:39;;;;;;;9.95;6.43;;;;;;;19.34;54.54;98772.16;4360286;32;34164;-84
2023/06/17 05:57:06;;;;;;;8.98;6.00;;;;;;;19.22;54.76;98780.38;4346880;32;33493;-83
2023/06/17 05:59:34;;;;;;;8.93;5.57;;;;;;;20.13;52.57;98782.03;4360351;32;34485;-84
2023/06/17 06:02:02;;;;;;;10.15;6.15;;;;;;;20.02;52.75;98780.66;4359872;32;33676;-86
2023/06/17 06:04:30;;;;;;;10.10;6.20;;;;;;;20.08;53.65;98789.22;4360673;32;33698;-85
2023/06/17 06:06:58;;;;;;;8.93;6.20;;;;;;;19.81;53.31;98777.81;4360118;32;34280;-85
2023/06/17 06:09:25;;;;;;;10.35;5.82;;;;;;;20.31;51.94;98783.22;4360073;32;34439;-85
2023/06/17 06:11:53;;;;;;;11.82;6.00;;;;;;;20.29;52.80;98777.12;4359602;32;33894;-84
2023/06/17 06:14:21;;;;;;;9.02;6.28;;;;;;;20.21;53.64;98786.19;4360597;32;34541;-85
2023/06/17 06:16:51;;;;;;;9.50;5.30;;;;;;;20.22;52.97;98772.97;4360296;32;34222;-85
2023/06/17 06:19:20;;;;;;;9.70;5.53;;;;;;;20.45;52.26;98774.84;4356468;32;99882;-84
2023/06/17 06:21:50;;;;;;;10.02;5.80;;;;;;;20.69;52.62;98780.25;4359498;32;34928;-84
2023/06/17 06:24:17;;;;;;;9.23;5.97;;;;;;;20.34;52.46;98772.59;4360014;32;33939;-84
2023/06/17 06:26:45;;;;;;;9.50;5.78;;;;;;;20.53;52.52;98769.34;4360108;32;34189;-86
2023/06/17 06:29:14;;;;;;;7.97;5.85;;;;;;;20.82;52.01;98773.63;4359828;32;33728;-85
2023/06/17 06:31:43;;;;;;;8.25;5.93;;;;;;;20.54;52.79;98773.72;4346056;32;32635;-84
2023/06/17 06:34:11;;;;;;;9.00;5.75;;;;;;;21.02;51.03;98765.84;4359977;32;33775;-84
2023/06/17 06:36:38;;;;;;;9.00;6.00;;;;;;;21.11;51.09;98755.00;4360275;32;33705;-85
2023/06/17 06:39:07;;;;;;;11.00;5.65;;;;;;;21.17;50.78;98753.91;4360218;32;33366;-83
2023/06/17 06:41:41;;;;;;;8.93;6.12;;;;;;;21.14;51.46;98756.66;4359786;32;33678;-84
2023/06/17 06:44:16;;;;;;;10.65;6.05;;;;;;;21.41;51.07;98773.28;4360044;32;33826;-84
2023/06/17 06:46:44;;;;;;;7.70;5.20;;;;;;;21.29;51.24;98757.84;4360468;32;33892;-84
2023/06/17 06:49:11;;;;;;;10.15;5.95;;;;;;;21.69;50.93;98765.16;4359657;32;33637;-83
2023/06/17 06:51:39;;;;;;;12.63;5.87;;;;;;;21.17;52.21;98761.81;4359524;32;33935;-84
2023/06/17 06:54:07;;;;;;;8.88;5.80;;;;;;;21.66;50.99;98767.91;4359545;32;34989;-84
2023/06/17 06:56:34;;;;;;;9.10;5.47;;;;;;;21.40;51.45;98765.41;4359588;32;34101;-84
2023/06/17 06:59:02;;;;;;;10.40;5.37;;;;;;;21.61;51.51;98770.72;4359648;32;33694;-84
2023/06/17 07:01:30;;;;;;;9.93;5.60;;;;;;;21.65;52.07;98771.47;4359428;32;34893;-83
2023/06/17 07:04:01;;;;;;;8.57;5.15;;;;;;;21.66;51.01;98772.31;4359525;32;34060;-84
2023/06/17 07:06:29;;;;;;;9.02;5.53;;;;;;;22.03;51.11;98777.88;4359062;32;33866;-84
2023/06/17 07:08:57;;;;;;;9.32;5.45;;;;;;;22.30;49.77;98770.62;4359544;32;34625;-84
2023/06/17 07:11:26;;;;;;;9.27;4.85;;;;;;;22.13;49.19;98770.47;4360015;32;34137;-85
2023/06/17 07:13:53;;;;;;;7.65;4.43;;;;;;;22.01;49.19;98774.44;4359605;32;33671;-83
2023/06/17 07:16:21;;;;;;;7.30;5.15;;;;;;;22.24;47.44;98770.91;4359596;32;34168;-82
2023/06/17 07:18:49;;;;;;;9.32;4.72;;;;;;;21.94;48.83;98769.47;4359823;32;33610;-83
2023/06/17 07:21:17;;;;;;;8.35;4.75;;;;;;;22.00;50.00;98775.34;4358430;32;33783;-83
2023/06/17 07:23:45;;;;;;;7.40;4.60;;;;;;;22.19;49.15;98766.72;4359642;32;33835;-83
2023/06/17 07:26:12;;;;;;;8.60;4.97;;;;;;;22.29;48.87;98771.56;4359537;32;33816;-83
2023/06/17 07:28:39;;;;;;;7.53;4.82;;;;;;;22.61;48.92;98782.56;4359173;32;33591;-85
2023/06/17 07:31:08;;;;;;;7.65;4.03;;;;;;;22.98;47.90;98767.81;4360308;32;34046;-83
2023/06/17 07:33:36;;;;;;;9.07;5.10;;;;;;;22.98;47.09;98771.31;4361214;32;35097;-83
2023/06/17 07:36:03;;;;;;;7.87;4.60;;;;;;;22.77;48.03;98774.87;4361254;32;35522;-84
2023/06/17 07:38:33;;;;;;;8.10;4.40;;;;;;;23.16;47.35;98761.69;4361000;32;34493;-82
2023/06/17 07:41:01;;;;;;;9.05;4.20;;;;;;;23.10;46.95;98774.31;4360933;32;33523;-84
2023/06/17 07:43:29;;;;;;;8.88;4.53;;;;;;;23.45;46.41;98772.72;4347507;32;33783;-84
2023/06/17 07:45:57;;;;;;;7.62;4.10;;;;;;;23.45;46.42;98773.63;4347718;32;33741;-85
2023/06/17 07:48:27;;;;;;;9.25;4.37;;;;;;;23.26;46.52;98765.66;4347649;32;34441;-83
2023/06/17 07:50:55;;;;;;;9.30;4.40;;;;;;;23.09;47.05;98765.53;4361151;32;33398;-85
2023/06/17 07:53:23;;;;;;;7.30;3.92;;;;;;;23.62;47.46;98762.22;4360420;32;34625;-87
2023/06/17 07:55:52;;;;;;;7.10;4.28;;;;;;;23.64;45.07;98757.75;4342779;33;33295;-85
2023/06/17 07:58:20;;;;;;;8.27;4.12;;;;;;;23.91;44.51;98760.03;4344087;32;33538;-85
2023/06/17 08:00:47;;;;;;;8.88;4.25;;;;;;;23.62;45.81;98756.09;4360599;32;33979;-84
2023/06/17 08:03:16;;;;;;;8.60;4.43;;;;;;;23.68;45.63;98759.34;4359045;32;33869;-87
2023/06/17 08:05:43;;;;;;;6.37;4.03;;;;;;;23.81;45.71;98764.03;4360078;32;34074;-84
2023/06/17 08:08:11;;;;;;;9.98;3.83;;;;;;;23.23;47.10;98771.06;4360946;32;33802;-85
2023/06/17 08:10:38;;;;;;;7.97;4.03;;;;;;;23.25;47.86;98771.84;4360721;32;34057;-86
2023/06/17 08:13:06;;;;;;;8.15;4.37;;;;;;;22.64;47.61;98761.31;4360199;32;35125;-83
2023/06/17 08:15:35;;;;;;;7.57;4.12;;;;;;;23.11;46.65;98765.47;4361444;32;35009;-85
2023/06/17 08:18:03;;;;;;;7.22;3.70;;;;;;;22.72;47.84;98772.41;4361119;32;34549;-85
2023/06/17 08:20:30;;;;;;;8.30;4.80;;;;;;;23.03;46.30;98764.03;4360833;32;33644;-85
2023/06/17 08:22:58;;;;;;;9.07;4.45;;;;;;;22.73;47.71;98763.56;4360508;32;34169;-85
2023/06/17 08:25:28;;;;;;;6.68;4.10;;;;;;;22.70;47.91;98768.97;4360866;32;34284;-85
2023/06/17 08:27:56;;;;;;;7.78;4.30;;;;;;;22.29;49.07;98766.28;4359921;32;34528;-85
2023/06/17 08:30:23;;;;;;;8.57;4.22;;;;;;;22.57;47.92;98770.41;4360806;32;34598;-88
2023/06/17 08:32:51;;;;;;;7.85;5.12;;;;;;;22.61;46.81;98766.72;4345744;32;33214;-86
2023/06/17 08:35:19;;;;;;;7.32;4.43;;;;;;;22.58;47.61;98774.78;4360842;32;35382;-86
2023/06/17 08:37:47;;;;;;;7.35;4.70;;;;;;;22.72;47.25;98777.69;4360557;32;34832;-85
2023/06/17 08:40:16;;;;;;;7.93;4.25;;;;;;;23.22;46.48;98772.03;4351560;32;33316;-86
2023/06/17 08:42:43;;;;;;;8.38;4.35;;;;;;;23.25;47.06;98777.16;4359741;32;34635;-87
2023/06/17 08:45:12;;;;;;;12.57;4.65;;;;;;;22.92;47.67;98778.62;4360991;32;33977;-86
2023/06/17 08:47:41;;;;;;;9.15;4.47;;;;;;;23.53;46.88;98778.56;4347463;32;34699;-88
2023/06/17 08:50:09;;;;;;;10.02;4.53;;;;;;;23.41;47.38;98766.75;4346308;32;33132;-86
2023/06/17 08:52:38;;;;;;;6.50;3.80;;;;;;;23.57;46.69;98768.69;4347058;32;34987;-88
2023/06/17 08:55:06;;;;;;;8.57;3.70;;;;;;;23.75;45.68;98768.72;4332872;33;34176;-86
2023/06/17 08:57:34;;;;;;;6.85;3.90;;;;;;;23.93;44.01;98774.03;4332435;33;33530;-85
2023/06/17 09:00:03;;;;;;;8.02;3.78;;;;;;;23.59;45.31;98772.09;4346773;32;34793;-87
2023/06/17 09:02:32;;;;;;;8.23;3.95;;;;;;;24.00;45.59;98780.75;4334850;32;32695;-85
2023/06/17 09:05:01;;;;;;;7.45;3.80;;;;;;;24.27;45.29;98787.34;4347079;32;35038;-85
2023/06/17 09:07:29;;;;;;;5.25;3.60;;;;;;;24.34;45.05;98779.13;4347015;32;34481;-89
2023/06/17 09:10:06;;;;;;;7.57;3.78;;;;;;;24.61;45.54;98775.13;4360340;32;34067;-86
2023/06/17 09:12:40;;;;;;;6.53;3.47;;;;;;;24.62;43.78;98782.13;4360705;32;34418;-85
2023/06/17 09:15:14;;;;;;;6.03;3.80;;;;;;;24.90;44.07;98778.06;4360596;32;34560;-85
2023/06/17 09:17:48;;;;;;;7.03;3.72;;;;;;;24.73;42.96;98768.31;4360806;32;33822;-85
2023/06/17 09:20:16;;;;;;;7.87;3.55;;;;;;;24.96;43.32;98777.75;4360018;32;33591;-86
2023/06/17 09:22:46;;;;;;;6.32;3.62;;;;;;;25.12;44.62;98768.09;4360504;32;34944;-88
2023/06/17 09:25:15;;;;;;;5.93;3.62;;;;;;;24.87;43.97;98783.53;4358210;32;33851;-86
2023/06/17 09:27:48;;;;;;;5.57;3.20;;;;;;;24.57;43.34;98783.31;4347080;32;35256;-85
2023/06/17 09:30:37;;;;;;;6.57;3.92;;;;;;;25.06;43.62;98783.44;4349528;32;33516;-88
2023/06/17 09:33:16;;;;;;;9.88;3.65;;;;;;;25.11;41.76;98784.06;4360755;32;34539;-86
2023/06/17 09:35:44;;;;;;;6.55;3.75;;;;;;;24.81;42.79;98783.84;4360199;32;33862;-84
2023/06/17 09:38:15;;;;;;;7.65;3.85;;;;;;;24.87;42.94;98780.87;4360610;32;33304;-84
2023/06/17 09:40:42;;;;;;;5.43;3.55;;;;;;;24.81;41.66;98779.38;4360308;32;33975;-85
2023/06/17 09:43:11;;;;;;;6.50;3.75;;;;;;;24.63;42.92;98781.22;4346509;32;34763;-86
2023/06/17 09:46:01;;;;;;;7.82;3.70;;;;;;;24.82;42.60;98778.47;4348676;32;34332;-87
2023/06/17 09:48:38;;;;;;;7.60;3.43;;;;;;;25.12;44.12;98784.00;4351347;32;33470;-85
2023/06/17 09:51:12;;;;;;;6.00;3.45;;;;;;;25.18;42.17;98777.50;4360588;32;33728;-85
2023/06/17 09:53:41;;;;;;;8.82;3.25;;;;;;;25.44;42.09;98769.00;4359631;32;33605;-84
2023/06/17 09:56:10;;;;;;;5.65;3.50;;;;;;;24.93;42.75;98778.78;4360268;32;33886;-87
2023/06/17 09:58:41;;;;;;;10.65;3.67;;;;;;;24.99;42.13;98782.88;4360603;32;33762;-87
2023/06/17 10:01:12;;;;;;;9.02;3.30;;;;;;;25.18;42.03;98781.00;4346957;32;33842;-84
2023/06/17 10:03:40;;;;;;;8.13;3.12;;;;;;;25.27;41.58;98773.50;4360371;32;34244;-86
2023/06/17 10:06:12;;;;;;;5.47;3.60;;;;;;;25.28;42.36;98778.75;4360523;32;34148;-85
2023/06/17 10:08:43;;;;;;;5.72;3.62;;;;;;;25.65;41.17;98779.41;4348044;32;33359;-85
2023/06/17 10:11:15;;;;;;;7.25;3.75;;;;;;;25.34;44.81;98781.03;4347153;32;33690;-84
2023/06/17 10:13:44;;;;;;;6.70;3.50;;;;;;;25.57;40.67;98769.22;4346868;32;34223;-86
2023/06/17 10:16:13;;;;;;;8.00;3.47;;;;;;;24.75;41.86;98777.06;4360550;32;33969;-84
2023/06/17 10:18:44;;;;;;;7.60;3.37;;;;;;;24.69;40.25;98780.87;4360512;32;34612;-86
2023/06/17 10:21:12;;;;;;;8.07;3.25;;;;;;;24.95;41.25;98782.19;4347204;32;33978;-86
2023/06/17 10:23:41;;;;;;;6.62;3.33;;;;;;;24.57;43.23;98788.59;4347145;32;34128;-85
2023/06/17 10:26:11;;;;;;;7.28;3.58;;;;;;;24.21;42.80;98790.34;4346937;32;33974;-85
2023/06/17 10:28:51;;;;;;;7.12;3.35;;;;;;;24.14;42.44;98788.91;4346564;32;34353;-85
2023/06/17 10:31:22;;;;;;;6.72;3.37;;;;;;;23.92;43.34;98794.38;4346119;32;34684;-86
2023/06/17 10:33:51;;;;;;;8.68;3.65;;;;;;;24.03;46.37;98796.50;4360193;32;33758;-86
2023/06/17 10:36:22;;;;;;;6.20;4.20;;;;;;;23.67;46.17;98796.44;4346776;32;34231;-85
2023/06/17 10:38:54;;;;;;;5.75;3.42;;;;;;;24.57;42.73;98797.41;4360272;32;33653;-84
2023/06/17 10:41:44;;;;;;;5.93;2.90;;;;;;;24.27;43.43;98795.31;4360280;32;33476;-85
2023/06/17 10:44:33;;;;;;;8.55;3.33;;;;;;;24.38;43.73;98788.63;4360382;32;34711;-85
2023/06/17 10:47:03;;;;;;;7.53;3.83;;;;;;;24.12;44.63;98795.19;4360580;32;33646;-87
2023/06/17 10:49:39;;;;;;;5.90;3.10;;;;;;;24.57;44.05;98786.81;4360213;32;33341;-86
2023/06/17 10:52:12;;;;;;;8.18;3.50;;;;;;;25.22;42.07;98785.22;4346945;32;34420;-86
2023/06/17 10:54:48;;;;;;;6.40;3.60;;;;;;;25.05;41.25;98790.53;4360138;32;35641;-87
2023/06/17 10:57:15;;;;;;;5.53;3.20;;;;;;;25.02;40.70;98793.34;4346984;32;33864;-86
2023/06/17 10:59:43;;;;;;;5.50;3.28;;;;;;;24.93;42.16;98796.50;4360245;32;33437;-87
2023/06/17 11:02:10;;;;;;;7.35;3.22;;;;;;;25.21;41.78;98785.31;4359776;32;33836;-87
2023/06/17 11:04:41;;;;;;;6.03;3.53;;;;;;;25.05;41.87;98792.34;4359206;32;34286;-86
2023/06/17 11:07:09;;;;;;;6.57;3.45;;;;;;;25.32;39.57;98788.25;4359909;32;34641;-86
2023/06/17 11:32:29;;;;;;;5.50;2.97;;;;;;;24.80;41.02;98785.62;4325991;30;20435;-86
2023/06/17 11:34:57;;;;;;;6.68;3.15;;;;;;;25.43;40.07;98779.72;4359484;32;34440;-84
2023/06/17 11:37:24;;;;;;;7.57;3.22;;;;;;;24.98;40.51;98786.50;4359482;32;34863;-86
2023/06/17 11:39:56;;;;;;;6.93;3.00;;;;;;;25.49;39.95;98787.31;4359782;32;34166;-86
2023/06/17 11:42:23;;;;;;;8.48;3.00;;;;;;;25.46;40.20;98777.75;4359027;32;34025;-83
2023/06/17 11:44:52;;;;;;;8.30;3.58;;;;;;;25.37;40.11;98780.03;4345791;32;32987;-91
2023/06/17 11:47:31;;;;;;;5.80;3.00;;;;;;;25.12;41.47;98773.41;4345737;32;33836;-86
2023/06/17 11:49:59;;;;;;;6.82;2.80;;;;;;;25.12;39.85;98772.53;4345007;32;33495;-88
2023/06/17 11:52:26;;;;;;;5.30;2.80;;;;;;;25.45;41.37;98767.19;4333034;32;33297;-88
2023/06/17 11:54:55;;;;;;;4.87;2.85;;;;;;;25.46;40.42;98771.59;4359454;32;33831;-85
2023/06/17 11:57:24;;;;;;;5.37;2.50;;;;;;;25.75;39.90;98766.47;4345603;32;34025;-85
2023/06/17 11:59:52;;;;;;;5.68;3.08;;;;;;;25.73;39.49;98759.44;4345583;32;34928;-88
2023/06/17 12:02:27;;;;;;;7.90;2.83;;;;;;;25.88;39.72;98768.38;4344224;32;34706;-85